Terminal Aerodrome Forecast
Issued by NWS La Crosse, WI

Home | Current Version | Previous Version | Text Only | Print | Product List | Glossary On
Versions: 1 2 3 4 5 6 7 8 9 10 11 12 13 14 15 16 17 18 19 20 21 22 23 24 25 26 27 28 29 30 31 32 33
000
FTUS43 KARX 121120
TAFRST
TAF
KRST 121120Z 1212/1312 22005KT 2SM BR SCT030
      TEMPO 1213/1215 5SM BR
     FM121500 27005KT 5SM BR VCSH BKN030
     FM122200 30007KT P6SM VCTS BKN025CB
     FM130200 28007KT P6SM SCT025
     FM130600 27007KT P6SM SKC=

USA.gov is the U.S. government's official web portal to all federal, state and local government web resources and services.